Time;durP1;ratioP1;P1;durP2;ratioP2;P2;SDS_P1;SDS_P2;PMS_P1;PMS_P2;Temp;Humidity;BMP_temperature;BMP_pressure;BME280_temperature;BME280_humidity;BME280_pressure;Samples;Min_cycle;Max_cycle;Signal;HPM_P1;HPM_P2
2022/01/30 00:01:29;;;;;;;;;;;;;;;;;;5054446;28;19927;-47
2022/01/30 00:03:55;;;;;;;;;;;;;;;;;;5054429;28;20271;-48
2022/01/30 00:06:20;;;;;;;;;;;;;;;;;;5054221;28;20275;-47
2022/01/30 00:08:45;;;;;;;;;;;;;;;;;;5054133;28;19905;-47
2022/01/30 00:11:16;;;;;;;;;;;;;;;;;;5036409;28;19909;-48
2022/01/30 00:13:41;;;;;;;;;;;;;;;;;;5054333;28;19904;-48
2022/01/30 00:16:09;;;;;;;;;;;;;;;;;;5054223;28;20413;-47
2022/01/30 00:21:11;;;;;;;;;;;;;;;;;;5054285;28;19908;-47
2022/01/30 00:23:43;;;;;;;;;;;;;;;;;;5054075;28;19995;-48
2022/01/30 00:26:09;;;;;;;;;;;;;;;;;;5054235;28;20267;-48
2022/01/30 00:28:34;;;;;;;;;;;;;;;;;;5054084;28;19962;-47
2022/01/30 00:30:59;;;;;;;;;;;;;;;;;;5054005;28;20347;-49
2022/01/30 00:33:24;;;;;;;;;;;;;;;;;;5054188;28;20367;-50
2022/01/30 00:35:49;;;;;;;;;;;;;;;;;;5054297;28;20375;-48
2022/01/30 00:38:22;;;;;;;;;;;;;;;;;;5054053;28;19951;-49
2022/01/30 00:40:48;;;;;;;;;;;;;;;;;;5054005;28;20435;-49
2022/01/30 00:43:13;;;;;;;;;;;;;;;;;;5054059;28;19947;-48
2022/01/30 00:45:38;;;;;;;;;;;;;;;;;;5053947;28;19963;-48
2022/01/30 00:48:03;;;;;;;;;;;;;;;;;;5053685;28;19991;-49
2022/01/30 00:50:31;;;;;;;;;;;;;;;;;;5053707;28;20015;-48
2022/01/30 00:52:56;;;;;;;;;;;;;;;;;;5053752;28;20314;-49
2022/01/30 00:55:22;;;;;;;;;;;;;;;;;;5053843;28;19959;-48
2022/01/30 00:57:47;;;;;;;;;;;;;;;;;;5053819;28;19916;-48
2022/01/30 01:00:12;;;;;;;;;;;;;;;;;;5055043;28;19909;-47
2022/01/30 01:02:37;;;;;;;;;;;;;;;;;;5057240;28;20486;-49
2022/01/30 01:05:05;;;;;;;;;;;;;;;;;;5057386;28;19951;-48
2022/01/30 01:07:30;;;;;;;;;;;;;;;;;;5057387;28;19909;-47
2022/01/30 01:23:38;;;;;;;;;;;;;;;;;;5057142;28;19908;-51
2022/01/30 01:26:03;;;;;;;;;;;;;;;;;;5057134;28;19917;-49
2022/01/30 01:28:29;;;;;;;;;;;;;;;;;;5056921;28;19950;-50
2022/01/30 01:30:54;;;;;;;;;;;;;;;;;;5056870;28;20286;-48
2022/01/30 01:33:20;;;;;;;;;;;;;;;;;;5057131;28;19912;-50
2022/01/30 01:35:45;;;;;;;;;;;;;;;;;;5056907;28;19909;-49
2022/01/30 01:38:14;;;;;;;;;;;;;;;;;;5056763;28;19913;-48
2022/01/30 01:40:39;;;;;;;;;;;;;;;;;;5056713;28;19951;-50
2022/01/30 01:43:05;;;;;;;;;;;;;;;;;;5056556;28;19905;-48
2022/01/30 01:45:35;;;;;;;;;;;;;;;;;;5056525;28;19909;-47
2022/01/30 01:48:07;;;;;;;;;;;;;;;;;;5056565;28;19996;-47
2022/01/30 01:50:39;;;;;;;;;;;;;;;;;;5056459;28;19908;-51
2022/01/30 01:53:04;;;;;;;;;;;;;;;;;;5056421;28;20034;-50
2022/01/30 01:55:29;;;;;;;;;;;;;;;;;;5056364;28;19904;-48
2022/01/30 01:57:54;;;;;;;;;;;;;;;;;;5056307;28;19905;-48
2022/01/30 02:00:19;;;;;;;;;;;;;;;;;;5056390;28;19908;-48
2022/01/30 02:02:44;;;;;;;;;;;;;;;;;;5056417;28;19908;-51
2022/01/30 02:05:10;;;;;;;;;;;;;;;;;;5056189;28;19908;-48
2022/01/30 02:10:25;;;;;;;;;;;;;;;;;;5054735;28;19913;-48
2022/01/30 02:12:53;;;;;;;;;;;;;;;;;;5055095;28;19905;-49
2022/01/30 02:26:01;;;;;;;;;;;;;;;;;;5035773;28;20342;-50
2022/01/30 02:28:27;;;;;;;;;;;;;;;;;;5035942;28;19927;-47
2022/01/30 02:31:07;;;;;;;;;;;;;;;;;;5035694;28;20003;-47
2022/01/30 02:33:32;;;;;;;;;;;;;;;;;;5035895;28;19916;-50
2022/01/30 02:35:57;;;;;;;;;;;;;;;;;;5050437;28;19908;-49
2022/01/30 02:38:22;;;;;;;;;;;;;;;;;;5055315;28;19915;-49
2022/01/30 02:40:49;;;;;;;;;;;;;;;;;;5055797;28;20003;-49
2022/01/30 02:43:18;;;;;;;;;;;;;;;;;;5055664;28;19967;-47
2022/01/30 02:45:50;;;;;;;;;;;;;;;;;;5055549;28;19952;-47
2022/01/30 02:48:19;;;;;;;;;;;;;;;;;;5055318;28;20275;-47
2022/01/30 02:51:06;;;;;;;;;;;;;;;;;;5055318;28;19909;-47
2022/01/30 02:53:31;;;;;;;;;;;;;;;;;;5054924;28;19975;-47
2022/01/30 02:55:56;;;;;;;;;;;;;;;;;;5054889;28;20003;-48
2022/01/30 02:58:22;;;;;;;;;;;;;;;;;;5055168;28;19920;-47
2022/01/30 03:00:47;;;;;;;;;;;;;;;;;;5055452;28;20333;-47
2022/01/30 03:03:12;;;;;;;;;;;;;;;;;;5055100;28;19951;-48
2022/01/30 03:05:37;;;;;;;;;;;;;;;;;;5054564;28;20398;-48
2022/01/30 03:08:02;;;;;;;;;;;;;;;;;;5054992;28;20248;-47
2022/01/30 03:10:27;;;;;;;;;;;;;;;;;;5054863;28;19964;-47
2022/01/30 03:12:52;;;;;;;;;;;;;;;;;;5036965;28;19912;-47
2022/01/30 03:15:17;;;;;;;;;;;;;;;;;;5054591;28;19923;-48
2022/01/30 03:17:42;;;;;;;;;;;;;;;;;;5054973;28;19905;-47
2022/01/30 03:20:08;;;;;;;;;;;;;;;;;;5055029;28;19909;-50
2022/01/30 03:22:34;;;;;;;;;;;;;;;;;;5054691;28;19904;-50
2022/01/30 03:24:59;;;;;;;;;;;;;;;;;;5053475;28;19924;-50
2022/01/30 03:27:25;;;;;;;;;;;;;;;;;;5054854;28;19975;-48
2022/01/30 03:29:52;;;;;;;;;;;;;;;;;;5054714;28;20294;-47
2022/01/30 03:32:17;;;;;;;;;;;;;;;;;;5054566;28;19905;-48
2022/01/30 03:34:42;;;;;;;;;;;;;;;;;;5054350;28;19911;-48
2022/01/30 03:37:07;;;;;;;;;;;;;;;;;;5054514;28;19912;-47
2022/01/30 03:39:32;;;;;;;;;;;;;;;;;;5054567;28;20047;-47
2022/01/30 03:41:57;;;;;;;;;;;;;;;;;;5054444;28;20388;-48
2022/01/30 03:44:22;;;;;;;;;;;;;;;;;;5036318;28;19908;-48
2022/01/30 03:46:47;;;;;;;;;;;;;;;;;;5054190;28;20302;-49
2022/01/30 03:49:13;;;;;;;;;;;;;;;;;;5054246;28;19908;-49
2022/01/30 03:51:38;;;;;;;;;;;;;;;;;;5054129;28;19908;-48
2022/01/30 03:54:03;;;;;;;;;;;;;;;;;;5054400;28;19905;-48
2022/01/30 03:56:28;;;;;;;;;;;;;;;;;;5054346;28;19904;-48
2022/01/30 03:58:53;;;;;;;;;;;;;;;;;;5054257;28;19927;-49
2022/01/30 04:01:18;;;;;;;;;;;;;;;;;;5054327;28;19927;-47
2022/01/30 04:03:43;;;;;;;;;;;;;;;;;;5054024;28;19946;-48
2022/01/30 04:06:09;;;;;;;;;;;;;;;;;;5054217;28;19904;-48
2022/01/30 04:08:34;;;;;;;;;;;;;;;;;;5054166;28;19915;-48
2022/01/30 04:10:59;;;;;;;;;;;;;;;;;;5054102;28;19909;-50
2022/01/30 04:13:24;;;;;;;;;;;;;;;;;;5053657;28;19944;-48
2022/01/30 04:15:49;;;;;;;;;;;;;;;;;;5054257;28;19909;-48
2022/01/30 04:18:14;;;;;;;;;;;;;;;;;;5054095;28;19911;-48
2022/01/30 04:20:40;;;;;;;;;;;;;;;;;;5053878;28;19913;-47
2022/01/30 04:23:07;;;;;;;;;;;;;;;;;;5054080;28;19904;-47
2022/01/30 04:25:32;;;;;;;;;;;;;;;;;;5053936;28;19916;-48
2022/01/30 04:27:57;;;;;;;;;;;;;;;;;;5053984;28;19909;-48
2022/01/30 04:30:22;;;;;;;;;;;;;;;;;;5053478;28;19920;-48
2022/01/30 04:32:48;;;;;;;;;;;;;;;;;;5053987;28;20378;-50
2022/01/30 04:35:17;;;;;;;;;;;;;;;;;;5055467;28;19959;-50
2022/01/30 04:40:32;;;;;;;;;;;;;;;;;;5057567;28;20003;-47
2022/01/30 04:54:30;;;;;;;;;;;;;;;;;;5057916;28;19916;-48
2022/01/30 05:09:41;;;;;;;;;;;;;;;;;;4976413;28;19914;-48
2022/01/30 05:12:06;;;;;;;;;;;;;;;;;;4976459;28;20306;-47
2022/01/30 05:14:36;;;;;;;;;;;;;;;;;;4976012;28;20353;-47
2022/01/30 05:17:01;;;;;;;;;;;;;;;;;;4976316;28;20361;-47
2022/01/30 05:19:26;;;;;;;;;;;;;;;;;;5036614;28;19910;-47
2022/01/30 05:21:51;;;;;;;;;;;;;;;;;;5057133;28;19907;-48
2022/01/30 05:24:16;;;;;;;;;;;;;;;;;;5056521;28;19987;-48
2022/01/30 05:26:41;;;;;;;;;;;;;;;;;;5057134;28;19916;-47
2022/01/30 05:29:06;;;;;;;;;;;;;;;;;;5056837;28;19959;-50
2022/01/30 05:31:31;;;;;;;;;;;;;;;;;;5056919;28;19980;-48
2022/01/30 05:33:56;;;;;;;;;;;;;;;;;;5056738;28;19911;-47
2022/01/30 05:36:22;;;;;;;;;;;;;;;;;;5056370;28;19911;-48
2022/01/30 05:38:47;;;;;;;;;;;;;;;;;;5056686;28;19931;-47
2022/01/30 05:41:12;;;;;;;;;;;;;;;;;;5056647;28;19904;-50
2022/01/30 05:43:38;;;;;;;;;;;;;;;;;;5056874;28;20278;-48
2022/01/30 05:46:12;;;;;;;;;;;;;;;;;;5056015;28;19991;-48
2022/01/30 05:48:37;;;;;;;;;;;;;;;;;;5055543;28;19916;-49
2022/01/30 05:51:02;;;;;;;;;;;;;;;;;;5056614;28;19909;-49
2022/01/30 05:53:27;;;;;;;;;;;;;;;;;;5056620;28;19972;-50
2022/01/30 05:55:52;;;;;;;;;;;;;;;;;;5056527;28;20481;-47
2022/01/30 05:58:17;;;;;;;;;;;;;;;;;;5056127;28;19911;-48
2022/01/30 06:00:42;;;;;;;;;;;;;;;;;;5056312;28;19939;-49
2022/01/30 06:03:07;;;;;;;;;;;;;;;;;;5056149;28;20011;-48
2022/01/30 06:05:33;;;;;;;;;;;;;;;;;;5056317;28;20011;-48
2022/01/30 06:07:58;;;;;;;;;;;;;;;;;;5056153;28;20035;-48
2022/01/30 06:10:23;;;;;;;;;;;;;;;;;;5055725;28;19909;-49
2022/01/30 06:12:48;;;;;;;;;;;;;;;;;;5056341;28;20003;-48
2022/01/30 06:15:13;;;;;;;;;;;;;;;;;;5055973;28;20003;-48
2022/01/30 06:17:39;;;;;;;;;;;;;;;;;;5056157;28;20283;-47
2022/01/30 06:20:04;;;;;;;;;;;;;;;;;;5055754;28;19912;-51
2022/01/30 06:22:29;;;;;;;;;;;;;;;;;;5055974;28;19916;-48
2022/01/30 06:24:54;;;;;;;;;;;;;;;;;;5055738;28;19924;-48
2022/01/30 06:27:19;;;;;;;;;;;;;;;;;;5055646;28;19909;-48
2022/01/30 06:29:44;;;;;;;;;;;;;;;;;;5055792;28;19909;-48
2022/01/30 06:32:09;;;;;;;;;;;;;;;;;;5055654;28;19905;-50
2022/01/30 06:34:35;;;;;;;;;;;;;;;;;;5054685;28;20360;-48
2022/01/30 06:37:00;;;;;;;;;;;;;;;;;;5055534;28;19908;-47
2022/01/30 06:39:25;;;;;;;;;;;;;;;;;;5055329;28;19912;-48
2022/01/30 06:41:50;;;;;;;;;;;;;;;;;;5055476;28;19911;-48
2022/01/30 06:44:15;;;;;;;;;;;;;;;;;;5055541;28;19908;-48
2022/01/30 06:46:40;;;;;;;;;;;;;;;;;;5055513;28;19908;-50
2022/01/30 06:49:05;;;;;;;;;;;;;;;;;;5055311;28;19908;-48
2022/01/30 06:51:30;;;;;;;;;;;;;;;;;;5055208;28;19909;-47
2022/01/30 06:53:56;;;;;;;;;;;;;;;;;;5055141;28;19909;-48
2022/01/30 06:56:21;;;;;;;;;;;;;;;;;;5055202;28;19905;-49
2022/01/30 06:58:46;;;;;;;;;;;;;;;;;;5055107;28;19909;-50
2022/01/30 07:01:11;;;;;;;;;;;;;;;;;;5055083;28;19905;-49
2022/01/30 07:03:36;;;;;;;;;;;;;;;;;;5055048;28;19916;-51
2022/01/30 07:06:01;;;;;;;;;;;;;;;;;;5054355;28;19911;-48
2022/01/30 07:08:26;;;;;;;;;;;;;;;;;;5054706;28;19904;-48
2022/01/30 07:10:51;;;;;;;;;;;;;;;;;;5054941;28;19915;-49
2022/01/30 07:13:16;;;;;;;;;;;;;;;;;;5054704;28;19908;-48
2022/01/30 07:15:42;;;;;;;;;;;;;;;;;;5037013;28;20000;-49
2022/01/30 07:18:07;;;;;;;;;;;;;;;;;;5054937;28;19932;-48
2022/01/30 07:20:32;;;;;;;;;;;;;;;;;;5054871;28;19970;-49
2022/01/30 07:22:57;;;;;;;;;;;;;;;;;;5054444;28;19904;-51
2022/01/30 07:25:22;;;;;;;;;;;;;;;;;;5054475;28;19916;-48
2022/01/30 07:27:47;;;;;;;;;;;;;;;;;;5054580;28;19915;-48
2022/01/30 07:30:12;;;;;;;;;;;;;;;;;;5054865;28;19908;-47
2022/01/30 07:32:37;;;;;;;;;;;;;;;;;;5054581;28;19904;-48
2022/01/30 07:35:03;;;;;;;;;;;;;;;;;;5054441;28;20268;-49
2022/01/30 07:37:28;;;;;;;;;;;;;;;;;;5054602;28;19912;-49
2022/01/30 07:39:53;;;;;;;;;;;;;;;;;;5054688;28;19966;-48
2022/01/30 07:42:19;;;;;;;;;;;;;;;;;;5054525;28;20003;-51
2022/01/30 07:44:44;;;;;;;;;;;;;;;;;;5054093;28;19917;-48
2022/01/30 07:47:09;;;;;;;;;;;;;;;;;;5054672;28;19905;-49
2022/01/30 07:49:34;;;;;;;;;;;;;;;;;;5054378;28;19915;-49
2022/01/30 07:51:59;;;;;;;;;;;;;;;;;;5054497;28;19904;-48
2022/01/30 07:54:24;;;;;;;;;;;;;;;;;;5054547;28;19966;-50
2022/01/30 07:56:49;;;;;;;;;;;;;;;;;;5054700;28;20386;-47
2022/01/30 07:59:14;;;;;;;;;;;;;;;;;;5054572;28;20355;-47
2022/01/30 08:01:40;;;;;;;;;;;;;;;;;;5054798;28;19927;-48
2022/01/30 08:04:07;;;;;;;;;;;;;;;;;;5054784;28;19911;-48
2022/01/30 08:06:32;;;;;;;;;;;;;;;;;;5036429;28;19948;-47
2022/01/30 08:08:57;;;;;;;;;;;;;;;;;;5054397;28;19998;-48
2022/01/30 08:11:22;;;;;;;;;;;;;;;;;;5057888;28;19927;-49
2022/01/30 08:13:47;;;;;;;;;;;;;;;;;;5058470;28;19983;-47
2022/01/30 08:16:13;;;;;;;;;;;;;;;;;;5058137;28;19952;-48
2022/01/30 08:18:39;;;;;;;;;;;;;;;;;;5058500;28;20275;-51
2022/01/30 08:21:04;;;;;;;;;;;;;;;;;;5064381;28;20381;-48
2022/01/30 08:23:31;;;;;;;;;;;;;;;;;;5061608;28;19913;-49
2022/01/30 08:25:56;;;;;;;;;;;;;;;;;;5058188;28;19923;-48
2022/01/30 08:28:22;;;;;;;;;;;;;;;;;;5058038;28;19905;-48
2022/01/30 08:30:47;;;;;;;;;;;;;;;;;;5058168;28;19916;-50
2022/01/30 08:33:12;;;;;;;;;;;;;;;;;;5057968;28;19988;-49
2022/01/30 08:35:37;;;;;;;;;;;;;;;;;;5058168;28;20000;-48
2022/01/30 08:38:02;;;;;;;;;;;;;;;;;;5057918;28;20477;-48
2022/01/30 08:40:27;;;;;;;;;;;;;;;;;;5057924;28;20000;-48
2022/01/30 08:42:52;;;;;;;;;;;;;;;;;;5057624;28;20359;-48
2022/01/30 08:45:17;;;;;;;;;;;;;;;;;;5057778;28;19915;-50
2022/01/30 08:47:42;;;;;;;;;;;;;;;;;;5057969;28;19904;-48
2022/01/30 08:50:07;;;;;;;;;;;;;;;;;;5057707;28;19963;-50
2022/01/30 08:52:33;;;;;;;;;;;;;;;;;;5057621;28;19905;-47
2022/01/30 08:54:58;;;;;;;;;;;;;;;;;;5057543;28;20326;-48
2022/01/30 08:57:23;;;;;;;;;;;;;;;;;;5057760;28;19900;-49
2022/01/30 08:59:48;;;;;;;;;;;;;;;;;;5057683;28;19905;-49
2022/01/30 09:02:13;;;;;;;;;;;;;;;;;;5056742;28;19978;-49
2022/01/30 09:04:38;;;;;;;;;;;;;;;;;;5057390;28;20352;-48
2022/01/30 09:07:04;;;;;;;;;;;;;;;;;;5057478;28;19912;-48
2022/01/30 09:09:30;;;;;;;;;;;;;;;;;;5057240;28;19915;-47
2022/01/30 09:11:55;;;;;;;;;;;;;;;;;;5057255;28;19909;-47
2022/01/30 09:14:21;;;;;;;;;;;;;;;;;;5057249;28;20482;-49
2022/01/30 09:16:46;;;;;;;;;;;;;;;;;;5056347;28;20306;-48
2022/01/30 09:19:11;;;;;;;;;;;;;;;;;;5057335;28;19905;-51
2022/01/30 09:21:36;;;;;;;;;;;;;;;;;;5055648;28;19916;-47
2022/01/30 09:24:01;;;;;;;;;;;;;;;;;;5056992;28;19908;-49
2022/01/30 09:26:27;;;;;;;;;;;;;;;;;;5057067;28;19909;-50
2022/01/30 09:28:52;;;;;;;;;;;;;;;;;;5057031;28;19909;-49
2022/01/30 09:31:17;;;;;;;;;;;;;;;;;;5056630;28;19908;-49
2022/01/30 09:33:42;;;;;;;;;;;;;;;;;;5057006;28;19905;-48
2022/01/30 09:36:07;;;;;;;;;;;;;;;;;;5056920;28;19954;-49
2022/01/30 09:38:32;;;;;;;;;;;;;;;;;;5056840;28;19958;-51
2022/01/30 09:40:57;;;;;;;;;;;;;;;;;;5056378;28;19908;-49
2022/01/30 09:43:23;;;;;;;;;;;;;;;;;;5056768;28;19912;-52
2022/01/30 09:45:48;;;;;;;;;;;;;;;;;;5056605;28;20394;-51
2022/01/30 09:48:13;;;;;;;;;;;;;;;;;;5056613;28;20321;-51
2022/01/30 09:50:38;;;;;;;;;;;;;;;;;;5056640;28;19916;-49
2022/01/30 09:53:03;;;;;;;;;;;;;;;;;;5056351;28;20011;-49
2022/01/30 09:55:28;;;;;;;;;;;;;;;;;;5056715;28;19991;-49
2022/01/30 09:57:53;;;;;;;;;;;;;;;;;;5056596;28;19911;-49
2022/01/30 10:00:18;;;;;;;;;;;;;;;;;;5056595;28;20292;-48
2022/01/30 10:02:43;;;;;;;;;;;;;;;;;;5056425;28;19908;-49
2022/01/30 10:05:09;;;;;;;;;;;;;;;;;;5056000;28;21663;-48
2022/01/30 10:07:34;;;;;;;;;;;;;;;;;;5056338;28;19909;-50
2022/01/30 10:09:59;;;;;;;;;;;;;;;;;;5055723;28;19916;-49
2022/01/30 10:12:28;;;;;;;;;;;;;;;;;;5056140;28;19904;-48
2022/01/30 10:14:53;;;;;;;;;;;;;;;;;;5056005;28;19904;-49
2022/01/30 10:17:20;;;;;;;;;;;;;;;;;;5056061;28;19915;-48
2022/01/30 10:19:46;;;;;;;;;;;;;;;;;;5055770;28;19923;-49
2022/01/30 10:22:11;;;;;;;;;;;;;;;;;;5056076;28;20351;-48
2022/01/30 10:24:36;;;;;;;;;;;;;;;;;;5062530;22;20326;-48
2022/01/30 10:27:03;;;;;;;;;;;;;;;;;;5055867;28;19983;-50
2022/01/30 10:29:28;;;;;;;;;;;;;;;;;;5055705;28;19909;-48
2022/01/30 10:31:53;;;;;;;;;;;;;;;;;;5037894;28;19954;-50
2022/01/30 10:34:18;;;;;;;;;;;;;;;;;;5055126;28;19908;-49
2022/01/30 10:36:43;;;;;;;;;;;;;;;;;;5037831;28;19905;-48
2022/01/30 10:39:14;;;;;;;;;;;;;;;;;;5055666;28;19905;-49
2022/01/30 10:41:41;;;;;;;;;;;;;;;;;;5055555;28;19984;-48
2022/01/30 10:44:06;;;;;;;;;;;;;;;;;;5055523;28;19915;-49
2022/01/30 10:46:31;;;;;;;;;;;;;;;;;;5055541;28;19909;-48
2022/01/30 10:48:57;;;;;;;;;;;;;;;;;;5054830;28;20351;-49
2022/01/30 10:51:22;;;;;;;;;;;;;;;;;;5055285;28;19991;-50
2022/01/30 10:53:49;;;;;;;;;;;;;;;;;;5055407;28;19950;-48
2022/01/30 10:56:15;;;;;;;;;;;;;;;;;;5055291;28;19912;-49
2022/01/30 10:58:40;;;;;;;;;;;;;;;;;;5055101;28;19908;-48
2022/01/30 11:01:05;;;;;;;;;;;;;;;;;;5055249;28;19905;-51
2022/01/30 11:03:30;;;;;;;;;;;;;;;;;;5055192;28;20363;-49
2022/01/30 11:05:55;;;;;;;;;;;;;;;;;;5054890;28;20283;-49
2022/01/30 11:08:20;;;;;;;;;;;;;;;;;;5055032;28;19930;-47
2022/01/30 11:10:45;;;;;;;;;;;;;;;;;;5055129;28;19908;-48
2022/01/30 11:13:14;;;;;;;;;;;;;;;;;;5054651;28;20330;-48
2022/01/30 11:15:43;;;;;;;;;;;;;;;;;;5054650;28;19909;-48
2022/01/30 11:18:08;;;;;;;;;;;;;;;;;;5054999;28;19900;-48
2022/01/30 11:20:33;;;;;;;;;;;;;;;;;;5054859;28;19911;-48
2022/01/30 11:22:58;;;;;;;;;;;;;;;;;;5037288;28;20287;-49
2022/01/30 11:25:23;;;;;;;;;;;;;;;;;;5054550;28;19999;-49
2022/01/30 11:27:49;;;;;;;;;;;;;;;;;;5054885;28;19992;-49
2022/01/30 11:30:17;;;;;;;;;;;;;;;;;;5054699;28;20323;-48
2022/01/30 11:32:42;;;;;;;;;;;;;;;;;;5054692;28;19932;-49
2022/01/30 11:35:07;;;;;;;;;;;;;;;;;;5054252;28;20280;-49
2022/01/30 11:37:33;;;;;;;;;;;;;;;;;;5054467;28;19905;-49
2022/01/30 11:39:58;;;;;;;;;;;;;;;;;;5054199;28;19913;-49
2022/01/30 11:42:23;;;;;;;;;;;;;;;;;;5054572;28;19908;-48
2022/01/30 11:44:48;;;;;;;;;;;;;;;;;;5053899;28;19912;-48
2022/01/30 11:47:13;;;;;;;;;;;;;;;;;;5054611;28;19956;-50
2022/01/30 11:49:39;;;;;;;;;;;;;;;;;;5054506;28;19912;-50
2022/01/30 11:52:04;;;;;;;;;;;;;;;;;;5054634;28;20332;-49
2022/01/30 11:54:29;;;;;;;;;;;;;;;;;;5054227;28;20259;-49
2022/01/30 11:56:54;;;;;;;;;;;;;;;;;;5054228;28;19911;-51
2022/01/30 11:59:19;;;;;;;;;;;;;;;;;;5054013;28;20001;-51
2022/01/30 12:01:44;;;;;;;;;;;;;;;;;;5054388;28;19904;-48
2022/01/30 12:04:09;;;;;;;;;;;;;;;;;;5054245;28;19919;-51
2022/01/30 12:06:35;;;;;;;;;;;;;;;;;;5054559;28;19963;-50
2022/01/30 12:09:00;;;;;;;;;;;;;;;;;;5054360;28;19962;-49
2022/01/30 12:11:25;;;;;;;;;;;;;;;;;;5054376;28;19940;-51
2022/01/30 12:13:50;;;;;;;;;;;;;;;;;;5054400;28;20287;-50
2022/01/30 12:16:15;;;;;;;;;;;;;;;;;;5054059;28;19905;-49
2022/01/30 12:18:40;;;;;;;;;;;;;;;;;;5054260;28;19905;-51
2022/01/30 12:21:08;;;;;;;;;;;;;;;;;;5054214;28;19911;-49
2022/01/30 12:23:34;;;;;;;;;;;;;;;;;;5053986;28;20011;-48
2022/01/30 12:26:04;;;;;;;;;;;;;;;;;;5054250;28;19905;-48
2022/01/30 12:28:29;;;;;;;;;;;;;;;;;;5054183;28;20275;-48
2022/01/30 12:30:54;;;;;;;;;;;;;;;;;;5053991;28;19909;-48
2022/01/30 12:33:19;;;;;;;;;;;;;;;;;;5054049;28;20367;-50
2022/01/30 12:35:44;;;;;;;;;;;;;;;;;;5054220;28;19959;-47
2022/01/30 12:38:09;;;;;;;;;;;;;;;;;;5054049;28;19916;-49
2022/01/30 12:40:34;;;;;;;;;;;;;;;;;;5053922;28;19941;-49
2022/01/30 12:42:59;;;;;;;;;;;;;;;;;;5053924;28;19912;-47
2022/01/30 12:45:25;;;;;;;;;;;;;;;;;;5053840;28;19951;-50
2022/01/30 12:47:50;;;;;;;;;;;;;;;;;;5053875;28;19912;-47
2022/01/30 12:50:15;;;;;;;;;;;;;;;;;;5054079;28;19908;-47
2022/01/30 12:52:40;;;;;;;;;;;;;;;;;;5053982;28;20275;-48
2022/01/30 12:55:12;;;;;;;;;;;;;;;;;;5053862;28;19908;-49
2022/01/30 12:57:37;;;;;;;;;;;;;;;;;;5057531;28;19955;-49
2022/01/30 13:00:02;;;;;;;;;;;;;;;;;;5057514;28;20006;-49
2022/01/30 13:02:28;;;;;;;;;;;;;;;;;;5039542;28;19916;-49
2022/01/30 13:04:53;;;;;;;;;;;;;;;;;;5057336;28;19930;-48
2022/01/30 13:07:19;;;;;;;;;;;;;;;;;;5057290;28;20232;-51
2022/01/30 13:09:44;;;;;;;;;;;;;;;;;;5057451;28;19917;-48
2022/01/30 13:12:09;;;;;;;;;;;;;;;;;;5057423;28;19911;-47
2022/01/30 13:14:34;;;;;;;;;;;;;;;;;;5057361;28;19911;-47
2022/01/30 13:16:59;;;;;;;;;;;;;;;;;;5057119;28;20325;-47
2022/01/30 13:19:24;;;;;;;;;;;;;;;;;;5057153;28;19981;-48
2022/01/30 13:21:50;;;;;;;;;;;;;;;;;;5039041;28;19913;-48
2022/01/30 13:24:15;;;;;;;;;;;;;;;;;;5056920;28;19961;-48
2022/01/30 13:26:40;;;;;;;;;;;;;;;;;;5056971;28;20424;-47
2022/01/30 13:29:05;;;;;;;;;;;;;;;;;;5056990;28;19986;-50
2022/01/30 13:31:30;;;;;;;;;;;;;;;;;;5056986;28;19905;-48
2022/01/30 13:33:55;;;;;;;;;;;;;;;;;;5039128;28;19904;-49
2022/01/30 13:36:20;;;;;;;;;;;;;;;;;;5056840;28;19905;-49
2022/01/30 13:38:45;;;;;;;;;;;;;;;;;;5056908;28;19904;-47
2022/01/30 13:41:11;;;;;;;;;;;;;;;;;;5056767;28;19912;-50
2022/01/30 13:43:37;;;;;;;;;;;;;;;;;;5038835;28;20339;-51
2022/01/30 13:48:46;;;;;;;;;;;;;;;;;;5056751;28;19954;-47
2022/01/30 13:51:11;;;;;;;;;;;;;;;;;;5056620;28;19944;-49
2022/01/30 13:53:37;;;;;;;;;;;;;;;;;;5038576;28;19904;-49
2022/01/30 13:56:03;;;;;;;;;;;;;;;;;;5056536;28;20417;-52
2022/01/30 13:58:30;;;;;;;;;;;;;;;;;;5056594;28;19905;-50
2022/01/30 14:00:55;;;;;;;;;;;;;;;;;;5056382;28;19937;-50
2022/01/30 14:03:20;;;;;;;;;;;;;;;;;;5056522;28;20290;-50
2022/01/30 14:05:45;;;;;;;;;;;;;;;;;;5056124;28;20279;-48
2022/01/30 14:08:10;;;;;;;;;;;;;;;;;;5055454;28;19905;-50
2022/01/30 14:10:36;;;;;;;;;;;;;;;;;;5056155;28;20374;-51
2022/01/30 14:13:02;;;;;;;;;;;;;;;;;;5056134;28;19919;-51
2022/01/30 14:15:27;;;;;;;;;;;;;;;;;;5056379;28;20259;-47
2022/01/30 14:17:52;;;;;;;;;;;;;;;;;;5055952;28;19904;-50
2022/01/30 14:20:20;;;;;;;;;;;;;;;;;;5056095;28;19905;-50
2022/01/30 14:22:45;;;;;;;;;;;;;;;;;;5056058;28;19948;-49
2022/01/30 14:25:13;;;;;;;;;;;;;;;;;;5055807;28;19927;-49
2022/01/30 14:27:38;;;;;;;;;;;;;;;;;;5055875;28;19991;-50
2022/01/30 14:30:05;;;;;;;;;;;;;;;;;;5055691;28;19948;-52
2022/01/30 14:32:30;;;;;;;;;;;;;;;;;;5055734;28;19991;-49
2022/01/30 14:34:55;;;;;;;;;;;;;;;;;;5055681;28;20355;-48
2022/01/30 14:37:21;;;;;;;;;;;;;;;;;;5055693;28;19905;-50
2022/01/30 14:39:46;;;;;;;;;;;;;;;;;;5055732;28;19915;-47
2022/01/30 14:42:15;;;;;;;;;;;;;;;;;;5055609;28;19904;-47
2022/01/30 14:44:40;;;;;;;;;;;;;;;;;;5055676;28;19962;-49
2022/01/30 14:47:05;;;;;;;;;;;;;;;;;;5055595;28;20278;-48
2022/01/30 14:49:30;;;;;;;;;;;;;;;;;;5055299;28;20401;-49
2022/01/30 14:51:56;;;;;;;;;;;;;;;;;;5054576;28;19920;-47
2022/01/30 14:54:21;;;;;;;;;;;;;;;;;;5055480;28;19901;-48
2022/01/30 14:56:46;;;;;;;;;;;;;;;;;;5055516;28;19904;-47
2022/01/30 14:59:11;;;;;;;;;;;;;;;;;;5055278;28;19905;-48
2022/01/30 15:01:36;;;;;;;;;;;;;;;;;;5055230;28;19931;-50
2022/01/30 15:04:01;;;;;;;;;;;;;;;;;;5055419;28;20344;-47
2022/01/30 15:06:26;;;;;;;;;;;;;;;;;;5055367;28;19905;-51
2022/01/30 15:08:52;;;;;;;;;;;;;;;;;;5055270;28;19904;-50
2022/01/30 15:11:17;;;;;;;;;;;;;;;;;;5055118;28;19908;-48
2022/01/30 15:13:43;;;;;;;;;;;;;;;;;;5055193;28;19905;-50
2022/01/30 15:16:10;;;;;;;;;;;;;;;;;;5055026;28;19947;-50
2022/01/30 15:18:42;;;;;;;;;;;;;;;;;;5054974;28;19904;-46
2022/01/30 15:21:07;;;;;;;;;;;;;;;;;;5055004;28;19912;-49
2022/01/30 15:23:32;;;;;;;;;;;;;;;;;;5054857;28;20000;-48
2022/01/30 15:25:57;;;;;;;;;;;;;;;;;;5053965;28;20008;-47
2022/01/30 15:28:22;;;;;;;;;;;;;;;;;;5054829;28;20042;-50
2022/01/30 15:30:48;;;;;;;;;;;;;;;;;;5054726;28;20385;-47
2022/01/30 15:33:13;;;;;;;;;;;;;;;;;;5054819;28;20062;-51
2022/01/30 15:35:38;;;;;;;;;;;;;;;;;;5054723;28;20003;-50
2022/01/30 15:38:03;;;;;;;;;;;;;;;;;;5054845;28;19909;-47
2022/01/30 15:40:28;;;;;;;;;;;;;;;;;;5054736;28;19905;-51
2022/01/30 15:42:53;;;;;;;;;;;;;;;;;;5054552;28;20352;-49
2022/01/30 15:50:30;;;;;;;;;;;;;;;;;;5054677;28;19919;-50
2022/01/30 15:52:55;;;;;;;;;;;;;;;;;;5054579;28;19908;-50
2022/01/30 15:55:21;;;;;;;;;;;;;;;;;;5054950;28;19904;-47
2022/01/30 15:57:46;;;;;;;;;;;;;;;;;;5054557;28;19908;-48
2022/01/30 16:00:11;;;;;;;;;;;;;;;;;;5055119;28;19904;-47
2022/01/30 16:02:36;;;;;;;;;;;;;;;;;;5054299;28;19934;-48
2022/01/30 16:05:01;;;;;;;;;;;;;;;;;;5053547;28;19909;-48
2022/01/30 16:07:26;;;;;;;;;;;;;;;;;;5054378;28;19908;-47
2022/01/30 16:09:54;;;;;;;;;;;;;;;;;;5054179;28;19909;-47
2022/01/30 16:17:46;;;;;;;;;;;;;;;;;;5054361;28;19911;-48
2022/01/30 16:20:11;;;;;;;;;;;;;;;;;;5054323;28;19904;-49
2022/01/30 16:22:36;;;;;;;;;;;;;;;;;;5054177;28;19904;-48
2022/01/30 16:25:01;;;;;;;;;;;;;;;;;;5053814;28;19923;-51
2022/01/30 16:27:26;;;;;;;;;;;;;;;;;;5054125;28;19944;-48
2022/01/30 16:29:52;;;;;;;;;;;;;;;;;;5054070;28;20322;-49
2022/01/30 16:32:17;;;;;;;;;;;;;;;;;;5057289;28;19975;-48
2022/01/30 16:34:42;;;;;;;;;;;;;;;;;;5058012;28;19905;-48
2022/01/30 16:37:07;;;;;;;;;;;;;;;;;;5057980;28;19904;-48
2022/01/30 16:39:32;;;;;;;;;;;;;;;;;;5057955;28;19905;-48
2022/01/30 16:41:57;;;;;;;;;;;;;;;;;;5057848;28;19908;-48
2022/01/30 16:44:25;;;;;;;;;;;;;;;;;;5057711;28;19905;-51
2022/01/30 16:49:15;;;;;;;;;;;;;;;;;;5057652;28;19950;-48
2022/01/30 16:51:40;;;;;;;;;;;;;;;;;;5057627;28;19911;-47
2022/01/30 16:54:05;;;;;;;;;;;;;;;;;;5057720;28;19911;-48
2022/01/30 16:56:31;;;;;;;;;;;;;;;;;;5057657;28;19995;-51
2022/01/30 16:58:56;;;;;;;;;;;;;;;;;;5057628;28;20003;-47
2022/01/30 17:01:21;;;;;;;;;;;;;;;;;;5057456;28;19999;-48
2022/01/30 17:03:47;;;;;;;;;;;;;;;;;;5057480;28;19909;-48
2022/01/30 17:06:12;;;;;;;;;;;;;;;;;;5057564;28;19998;-51
2022/01/30 17:08:38;;;;;;;;;;;;;;;;;;5057689;28;19999;-48
2022/01/30 17:11:09;;;;;;;;;;;;;;;;;;5057275;28;20424;-51
2022/01/30 17:13:35;;;;;;;;;;;;;;;;;;5057773;28;19952;-48
2022/01/30 17:16:00;;;;;;;;;;;;;;;;;;5058069;28;19905;-49
2022/01/30 17:18:25;;;;;;;;;;;;;;;;;;5057779;28;19916;-48
2022/01/30 17:20:50;;;;;;;;;;;;;;;;;;5057534;28;19912;-49
2022/01/30 17:23:16;;;;;;;;;;;;;;;;;;5057454;28;20001;-48
2022/01/30 17:25:41;;;;;;;;;;;;;;;;;;5057649;28;20379;-49
2022/01/30 17:28:08;;;;;;;;;;;;;;;;;;5058162;28;19905;-48
2022/01/30 17:30:33;;;;;;;;;;;;;;;;;;5056994;28;19909;-49
2022/01/30 17:32:58;;;;;;;;;;;;;;;;;;5056913;28;19984;-48
2022/01/30 17:35:24;;;;;;;;;;;;;;;;;;5057094;28;20000;-48
2022/01/30 17:37:49;;;;;;;;;;;;;;;;;;5039249;28;19912;-49
2022/01/30 17:40:15;;;;;;;;;;;;;;;;;;5057252;28;19942;-49
2022/01/30 17:42:40;;;;;;;;;;;;;;;;;;5037914;28;19948;-51
2022/01/30 17:45:05;;;;;;;;;;;;;;;;;;5056792;28;19904;-49
2022/01/30 17:47:30;;;;;;;;;;;;;;;;;;5056699;28;20373;-51